Time;durP1;ratioP1;P1;durP2;ratioP2;P2;SDS_P1;SDS_P2;PMS_P1;PMS_P2;Temp;Humidity;BMP_temperature;BMP_pressure;BME280_temperature;BME280_humidity;BME280_pressure;Samples;Min_cycle;Max_cycle;Signal;HPM_P1;HPM_P2
2021/11/18 00:00:07;;;;;;;;;;;;;;;17.87;32.76;96652.84;1019979;29;953;-59
2021/11/18 00:00:39;;;;;;;;;;;;;;;17.91;32.78;96647.91;1020017;29;1004;-59
2021/11/18 00:01:10;;;;;;;;;;;;;;;17.96;33.02;96650.63;1020810;28;1003;-60
2021/11/18 00:01:47;;;;;;;;;;;;;;;18.04;33.02;96649.44;1020066;29;822;-59
2021/11/18 00:02:18;;;;;;;;;;;;;;;18.13;33.49;96648.06;1021203;29;985;-59
2021/11/18 00:02:49;;;;;;;;;;;;;;;18.21;33.42;96655.53;1019744;29;1762;-59
2021/11/18 00:03:21;;;;;;;;;;;;;;;18.28;33.53;96653.56;1016511;29;719;-60
2021/11/18 00:03:52;;;;;;;;;;;;;;;18.36;33.38;96651.31;1016510;29;712;-60
2021/11/18 00:04:23;;;;;;;;;;;;;;;18.43;33.51;96644.13;1012567;29;1450;-60
2021/11/18 00:04:54;;;;;;;;;;;;;;;18.51;33.47;96648.19;1016963;29;1339;-59
2021/11/18 00:05:25;;;;;;;;;;;;;;;18.57;33.24;96649.84;1020942;29;955;-59
2021/11/18 00:05:55;;;;;;;;;;;;;;;18.64;33.34;96647.88;1023890;29;999;-59
2021/11/18 00:06:26;;;;;;;;;;;;;;;18.70;33.26;96644.28;1024497;28;845;-60
2021/11/18 00:06:56;;;;;;;;;;;;;;;18.76;33.64;96643.31;1028563;28;845;-60
2021/11/18 00:07:27;;;;;;;;;;;;;;;18.80;33.62;96633.13;1028343;28;794;-59
2021/11/18 00:07:57;;;;;;;;;;;;;;;18.86;33.88;96638.22;1027978;28;727;-60
2021/11/18 00:08:27;;;;;;;;;;;;;;;18.91;33.93;96635.69;1028296;28;864;-59
2021/11/18 00:08:58;;;;;;;;;;;;;;;18.96;33.63;96642.84;1028101;28;840;-59
2021/11/18 00:09:29;;;;;;;;;;;;;;;18.99;33.53;96643.16;1032826;28;939;-60
2021/11/18 00:10:00;;;;;;;;;;;;;;;19.04;34.00;96632.69;1032110;28;817;-59
2021/11/18 00:10:31;;;;;;;;;;;;;;;19.08;34.00;96638.28;1032681;28;722;-59
2021/11/18 00:11:04;;;;;;;;;;;;;;;19.12;34.10;96634.94;1032198;28;867;-59
2021/11/18 00:11:35;;;;;;;;;;;;;;;19.16;34.10;96633.41;1032469;28;848;-59
2021/11/18 00:12:06;;;;;;;;;;;;;;;19.18;33.94;96631.31;1031951;28;852;-59
2021/11/18 00:12:37;;;;;;;;;;;;;;;19.23;34.18;96641.88;1027963;28;983;-59
2021/11/18 00:13:08;;;;;;;;;;;;;;;19.27;34.48;96640.34;1028142;28;760;-60
2021/11/18 00:13:42;;;;;;;;;;;;;;;19.30;34.26;96639.88;1028017;28;924;-59
2021/11/18 00:14:12;;;;;;;;;;;;;;;19.33;34.60;96642.03;1024701;28;837;-60
2021/11/18 00:14:42;;;;;;;;;;;;;;;19.36;34.33;96638.94;1027345;28;1285;-59
2021/11/18 00:15:13;;;;;;;;;;;;;;;19.39;34.86;96638.44;1028226;28;1319;-60
2021/11/18 00:15:43;;;;;;;;;;;;;;;19.42;34.54;96645.84;1020263;29;1366;-59
2021/11/18 00:16:14;;;;;;;;;;;;;;;19.45;34.48;96647.97;1019991;29;828;-59
2021/11/18 00:16:45;;;;;;;;;;;;;;;19.47;34.61;96638.00;1019720;29;829;-59
2021/11/18 00:17:15;;;;;;;;;;;;;;;19.49;34.30;96643.81;1020195;28;1385;-60
2021/11/18 00:17:45;;;;;;;;;;;;;;;19.52;34.88;96641.72;1027165;28;968;-59
2021/11/18 00:18:17;;;;;;;;;;;;;;;19.56;34.72;96642.88;1028099;28;723;-59
2021/11/18 00:18:47;;;;;;;;;;;;;;;19.59;34.68;96645.00;1024267;28;1019;-60
2021/11/18 00:19:17;;;;;;;;;;;;;;;19.61;34.67;96640.28;1024180;29;790;-59
2021/11/18 00:19:48;;;;;;;;;;;;;;;19.64;35.21;96639.81;1023641;29;1960;-60
2021/11/18 00:20:18;;;;;;;;;;;;;;;19.66;34.90;96642.97;1024383;28;924;-60
2021/11/18 00:20:50;;;;;;;;;;;;;;;19.67;34.75;96637.47;1023778;29;1649;-60
2021/11/18 00:21:29;;;;;;;;;;;;;;;19.70;34.60;96636.94;1019572;29;1063;-59
2021/11/18 00:21:59;;;;;;;;;;;;;;;19.73;34.78;96635.69;1021612;29;1016;-60
2021/11/18 00:22:30;;;;;;;;;;;;;;;19.75;34.58;96637.03;1023703;29;782;-60
2021/11/18 00:23:00;;;;;;;;;;;;;;;19.77;34.34;96642.03;1026528;28;790;-59
2021/11/18 00:23:33;;;;;;;;;;;;;;;19.78;34.63;96641.00;1032551;28;852;-59
2021/11/18 00:24:04;;;;;;;;;;;;;;;19.79;34.23;96643.38;1027994;28;991;-60
2021/11/18 00:24:34;;;;;;;;;;;;;;;19.82;35.05;96642.09;1027401;28;1226;-60
2021/11/18 00:25:06;;;;;;;;;;;;;;;19.83;35.11;96644.47;1023442;29;1381;-59
2021/11/18 00:25:36;;;;;;;;;;;;;;;19.86;34.88;96643.19;1020289;29;1063;-59
2021/11/18 00:26:06;;;;;;;;;;;;;;;19.87;34.79;96645.56;1024123;29;1035;-59
2021/11/18 00:26:37;;;;;;;;;;;;;;;19.89;34.84;96640.06;1023843;28;1031;-59
2021/11/18 00:27:07;;;;;;;;;;;;;;;19.90;34.57;96636.41;1028030;28;805;-60
2021/11/18 00:27:37;;;;;;;;;;;;;;;19.91;34.76;96640.59;1032345;28;1106;-59
2021/11/18 00:28:08;;;;;;;;;;;;;;;19.92;34.61;96643.00;1032486;28;880;-59
2021/11/18 00:28:38;;;;;;;;;;;;;;;19.95;34.32;96641.69;1032531;28;803;-59
2021/11/18 00:29:09;;;;;;;;;;;;;;;19.96;34.69;96643.28;1027855;28;754;-59
2021/11/18 00:29:39;;;;;;;;;;;;;;;19.96;34.31;96638.84;1027754;28;809;-59
2021/11/18 00:30:09;;;;;;;;;;;;;;;19.99;34.41;96645.44;1027789;28;1090;-59
2021/11/18 00:30:40;;;;;;;;;;;;;;;20.00;34.30;96639.13;1027941;28;1106;-60
2021/11/18 00:31:12;;;;;;;;;;;;;;;20.01;34.52;96638.09;1032114;28;1074;-58
2021/11/18 00:31:42;;;;;;;;;;;;;;;20.03;33.88;96638.66;1023593;29;1537;-58
2021/11/18 00:32:12;;;;;;;;;;;;;;;20.05;33.92;96636.56;1023704;28;768;-59
2021/11/18 00:32:43;;;;;;;;;;;;;;;20.06;34.27;96640.75;1024030;29;1028;-59
2021/11/18 00:33:14;;;;;;;;;;;;;;;20.07;34.71;96637.88;1024762;28;833;-59
2021/11/18 00:33:44;;;;;;;;;;;;;;;20.07;34.37;96635.25;1028870;28;806;-60
2021/11/18 00:34:14;;;;;;;;;;;;;;;20.09;34.48;96642.91;1028620;28;967;-59
2021/11/18 00:34:45;;;;;;;;;;;;;;;20.11;34.61;96638.97;1024502;28;1265;-59
2021/11/18 00:35:16;;;;;;;;;;;;;;;20.12;34.61;96643.19;1024261;29;980;-60
2021/11/18 00:35:47;;;;;;;;;;;;;;;20.12;34.49;96642.41;1024862;29;868;-60
2021/11/18 00:36:17;;;;;;;;;;;;;;;20.13;34.63;96639.50;1024378;29;1317;-60
2021/11/18 00:36:48;;;;;;;;;;;;;;;20.16;34.44;96646.13;1024783;29;814;-60
2021/11/18 00:37:18;;;;;;;;;;;;;;;20.15;34.26;96645.31;1025316;28;974;-59
2021/11/18 00:37:48;;;;;;;;;;;;;;;20.15;34.49;96645.31;1028847;28;1049;-60
2021/11/18 00:38:19;;;;;;;;;;;;;;;20.17;34.42;96645.09;1033357;28;1061;-59
2021/11/18 00:38:49;;;;;;;;;;;;;;;20.17;34.48;96642.47;1028873;28;1015;-60
2021/11/18 00:39:20;;;;;;;;;;;;;;;20.18;34.12;96642.19;1028697;28;928;-60
2021/11/18 00:39:50;;;;;;;;;;;;;;;20.19;34.54;96649.09;1020957;29;1969;-60
2021/11/18 00:40:22;;;;;;;;;;;;;;;20.18;34.11;96642.19;1020765;29;848;-60
2021/11/18 00:40:53;;;;;;;;;;;;;;;20.18;34.40;96636.94;1016869;29;1348;-59
2021/11/18 00:41:24;;;;;;;;;;;;;;;20.21;34.23;96644.38;1021479;28;797;-59
2021/11/18 00:41:54;;;;;;;;;;;;;;;20.23;34.45;96649.38;1024742;29;1359;-59
2021/11/18 00:42:24;;;;;;;;;;;;;;;20.23;34.13;96644.94;1024921;28;932;-59
2021/11/18 00:42:55;;;;;;;;;;;;;;;20.25;34.11;96639.41;1028757;28;816;-59
2021/11/18 00:43:25;;;;;;;;;;;;;;;20.25;34.51;96647.31;1024736;28;1026;-59
2021/11/18 00:43:55;;;;;;;;;;;;;;;20.27;34.23;96642.56;1029228;28;1083;-60
2021/11/18 00:44:26;;;;;;;;;;;;;;;20.29;33.83;96643.13;1028291;28;1292;-60
2021/11/18 00:44:57;;;;;;;;;;;;;;;20.31;33.79;96641.03;1028828;28;927;-59
2021/11/18 00:45:27;;;;;;;;;;;;;;;20.35;33.18;96644.75;1033098;28;991;-60
2021/11/18 00:45:58;;;;;;;;;;;;;;;20.37;33.50;96644.50;1033174;28;1058;-59
2021/11/18 00:46:32;;;;;;;;;;;;;;;20.37;33.24;96642.66;1033487;28;1014;-60
2021/11/18 00:47:02;;;;;;;;;;;;;;;20.36;33.93;96645.56;1032603;28;994;-60
2021/11/18 00:47:33;;;;;;;;;;;;;;;20.38;33.61;96644.22;1028963;28;1779;-60
2021/11/18 00:48:04;;;;;;;;;;;;;;;20.38;33.47;96646.88;1028415;28;1033;-60
2021/11/18 00:48:34;;;;;;;;;;;;;;;20.37;33.92;96650.56;1025162;29;849;-62
2021/11/18 00:49:05;;;;;;;;;;;;;;;20.38;33.55;96638.19;1025296;28;755;-60
2021/11/18 00:49:35;;;;;;;;;;;;;;;20.39;33.37;96643.22;1029011;28;959;-60
2021/11/18 00:50:05;;;;;;;;;;;;;;;20.41;33.82;96642.94;1028733;28;1054;-60
2021/11/18 00:50:37;;;;;;;;;;;;;;;20.42;33.32;96650.63;1029025;28;722;-60
2021/11/18 00:51:08;;;;;;;;;;;;;;;20.41;33.37;96649.00;1028762;28;994;-60
2021/11/18 00:51:39;;;;;;;;;;;;;;;20.42;33.67;96653.25;1024803;29;931;-60
2021/11/18 00:52:10;;;;;;;;;;;;;;;20.43;33.72;96652.19;1025114;28;816;-60
2021/11/18 00:52:40;;;;;;;;;;;;;;;20.43;33.35;96654.03;1028897;28;1354;-57
2021/11/18 00:53:10;;;;;;;;;;;;;;;20.41;34.09;96650.84;1029076;28;824;-59
2021/11/18 00:53:45;;;;;;;;;;;;;;;20.44;33.43;96655.63;1028727;28;808;-59
2021/11/18 00:54:15;;;;;;;;;;;;;;;20.44;33.96;96661.69;1029311;28;856;-60
2021/11/18 00:54:46;;;;;;;;;;;;;;;20.45;33.64;96654.56;1028688;28;1380;-59
2021/11/18 00:55:16;;;;;;;;;;;;;;;20.47;32.98;96650.66;1024660;29;1066;-60
2021/11/18 00:55:47;;;;;;;;;;;;;;;20.51;32.85;96657.00;1025087;29;776;-60
2021/11/18 00:56:20;;;;;;;;;;;;;;;20.50;33.33;96660.69;1025120;28;1022;-60
2021/11/18 00:56:51;;;;;;;;;;;;;;;20.53;32.97;96660.19;1028894;28;851;-60
2021/11/18 00:57:21;;;;;;;;;;;;;;;20.55;33.18;96657.28;1029464;28;722;-60
2021/11/18 00:57:52;;;;;;;;;;;;;;;20.54;32.96;96651.25;1024861;29;1050;-60
2021/11/18 00:58:22;;;;;;;;;;;;;;;20.55;32.66;96652.81;1020964;29;713;-59
2021/11/18 00:58:53;;;;;;;;;;;;;;;20.57;32.79;96656.00;1021288;29;826;-60
2021/11/18 00:59:24;;;;;;;;;;;;;;;20.56;32.76;96654.41;1017408;29;1426;-58
2021/11/18 00:59:54;;;;;;;;;;;;;;;20.57;32.80;96652.56;1012901;29;1915;-59
2021/11/18 01:00:26;;;;;;;;;;;;;;;20.58;32.59;96652.31;1016733;29;786;-60
2021/11/18 01:00:56;;;;;;;;;;;;;;;20.58;32.72;96649.69;1013577;29;1016;-60
2021/11/18 01:01:28;;;;;;;;;;;;;;;20.57;32.78;96652.56;1021776;28;861;-60
2021/11/18 01:01:58;;;;;;;;;;;;;;;20.59;32.73;96653.09;1024995;29;1515;-60
2021/11/18 01:02:28;;;;;;;;;;;;;;;20.58;33.10;96656.78;1024798;28;1074;-60
2021/11/18 01:02:59;;;;;;;;;;;;;;;20.58;33.04;96657.59;1028501;28;896;-60
2021/11/18 01:03:30;;;;;;;;;;;;;;;20.56;32.95;96661.53;1028929;28;852;-60
2021/11/18 01:04:00;;;;;;;;;;;;;;;20.59;33.08;96655.72;1025016;29;1471;-60
2021/11/18 01:04:30;;;;;;;;;;;;;;;20.59;32.88;96661.81;1024428;28;1332;-59
2021/11/18 01:05:01;;;;;;;;;;;;;;;20.59;32.85;96659.16;1025155;28;1074;-60
2021/11/18 01:05:33;;;;;;;;;;;;;;;20.61;32.58;96661.56;1025131;28;1805;-60
2021/11/18 01:06:03;;;;;;;;;;;;;;;20.58;32.89;96662.88;1024556;29;927;-60
2021/11/18 01:06:33;;;;;;;;;;;;;;;20.61;32.80;96661.56;1024969;29;968;-57
2021/11/18 01:07:04;;;;;;;;;;;;;;;20.63;32.98;96664.75;1025273;28;820;-58
2021/11/18 01:07:34;;;;;;;;;;;;;;;20.63;32.72;96659.47;1028780;28;1070;-60
2021/11/18 01:08:05;;;;;;;;;;;;;;;20.64;32.79;96655.78;1025274;28;1050;-60
2021/11/18 01:08:35;;;;;;;;;;;;;;;20.63;32.80;96654.22;1028525;28;903;-60
2021/11/18 01:09:06;;;;;;;;;;;;;;;20.64;32.57;96659.22;1029062;28;995;-59
2021/11/18 01:09:37;;;;;;;;;;;;;;;20.67;32.61;96650.81;1029020;28;773;-60
2021/11/18 01:10:07;;;;;;;;;;;;;;;20.67;32.48;96655.28;1028615;28;879;-59
2021/11/18 01:10:40;;;;;;;;;;;;;;;20.67;32.91;96652.66;1024678;29;1210;-59
2021/11/18 01:11:17;;;;;;;;;;;;;;;20.67;32.46;96652.66;1016744;29;1350;-60
2021/11/18 01:11:48;;;;;;;;;;;;;;;20.68;32.46;96652.41;1013331;29;775;-60
2021/11/18 01:12:18;;;;;;;;;;;;;;;20.68;32.46;96655.03;1013996;29;1032;-59
2021/11/18 01:12:49;;;;;;;;;;;;;;;20.66;32.58;96649.22;1018255;29;769;-59
2021/11/18 01:13:19;;;;;;;;;;;;;;;20.68;32.37;96654.22;1026302;28;1346;-60
2021/11/18 01:13:50;;;;;;;;;;;;;;;20.69;32.46;96648.72;1032983;28;1097;-60
2021/11/18 01:14:20;;;;;;;;;;;;;;;20.69;32.61;96648.72;1027999;28;813;-60
2021/11/18 01:14:51;;;;;;;;;;;;;;;20.70;32.55;96647.69;1024379;29;1265;-57
2021/11/18 01:15:22;;;;;;;;;;;;;;;20.68;32.74;96647.13;1024250;29;790;-60
2021/11/18 01:15:53;;;;;;;;;;;;;;;20.72;32.30;96645.59;1024852;28;823;-59
2021/11/18 01:16:24;;;;;;;;;;;;;;;20.71;32.51;96646.63;1029059;28;824;-59
2021/11/18 01:16:54;;;;;;;;;;;;;;;20.71;32.44;96641.34;1032958;28;842;-60
2021/11/18 01:17:25;;;;;;;;;;;;;;;20.72;32.36;96637.69;1033048;28;1046;-60
2021/11/18 01:17:55;;;;;;;;;;;;;;;20.71;32.59;96649.25;1032612;28;1045;-58
2021/11/18 01:18:25;;;;;;;;;;;;;;;20.72;32.44;96647.41;1033079;28;963;-59
2021/11/18 01:18:56;;;;;;;;;;;;;;;20.71;32.56;96641.34;1032771;28;1023;-59
2021/11/18 01:19:26;;;;;;;;;;;;;;;20.71;32.54;96641.34;1032886;28;1031;-58
2021/11/18 01:19:56;;;;;;;;;;;;;;;20.72;32.54;96644.78;1033124;28;1910;-59
2021/11/18 01:20:28;;;;;;;;;;;;;;;20.72;32.44;96642.16;1033279;28;714;-60
2021/11/18 01:20:59;;;;;;;;;;;;;;;20.72;32.45;96639.50;1032357;28;1073;-60
2021/11/18 01:21:29;;;;;;;;;;;;;;;20.70;32.80;96645.03;1028997;28;1038;-60
2021/11/18 01:22:00;;;;;;;;;;;;;;;20.72;32.55;96639.50;1028605;28;793;-59
2021/11/18 01:22:31;;;;;;;;;;;;;;;20.74;32.26;96640.06;1028555;28;856;-59
2021/11/18 01:23:03;;;;;;;;;;;;;;;20.72;32.55;96644.78;1028955;28;975;-59
2021/11/18 01:23:34;;;;;;;;;;;;;;;20.71;32.62;96645.84;1028549;28;858;-60
2021/11/18 01:24:04;;;;;;;;;;;;;;;20.71;32.65;96646.63;1028674;28;1043;-58
2021/11/18 01:24:38;;;;;;;;;;;;;;;20.71;32.90;96643.22;1028187;28;1226;-56
2021/11/18 01:25:09;;;;;;;;;;;;;;;20.71;32.68;96640.56;1025086;28;976;-60
2021/11/18 01:25:39;;;;;;;;;;;;;;;20.72;32.57;96640.31;1020635;29;1535;-60
2021/11/18 01:26:10;;;;;;;;;;;;;;;20.72;32.43;96642.94;1020695;29;936;-60
2021/11/18 01:26:41;;;;;;;;;;;;;;;20.72;32.64;96642.94;1020563;29;837;-59
2021/11/18 01:27:11;;;;;;;;;;;;;;;20.72;32.45;96642.94;1024628;28;813;-59
2021/11/18 01:27:43;;;;;;;;;;;;;;;20.77;32.27;96645.59;1028532;28;766;-60
2021/11/18 01:28:18;;;;;;;;;;;;;;;20.76;32.37;96648.50;1029402;28;872;-60
2021/11/18 01:28:48;;;;;;;;;;;;;;;20.79;32.09;96642.72;1024672;28;1046;-57
2021/11/18 01:29:19;;;;;;;;;;;;;;;20.77;32.17;96642.97;1028014;28;907;-58
2021/11/18 01:29:49;;;;;;;;;;;;;;;20.78;32.37;96641.13;1028472;28;840;-60
2021/11/18 01:30:24;;;;;;;;;;;;;;;20.77;32.03;96640.31;1024623;28;2406;-59
2021/11/18 01:30:54;;;;;;;;;;;;;;;20.78;32.26;96649.03;1024043;29;884;-59
2021/11/18 01:31:24;;;;;;;;;;;;;;;20.78;32.26;96641.13;1024589;29;949;-59
2021/11/18 01:31:55;;;;;;;;;;;;;;;20.78;32.36;96646.41;1024534;29;984;-59
2021/11/18 01:32:25;;;;;;;;;;;;;;;20.78;32.35;96641.13;1024364;28;1031;-58
2021/11/18 01:32:56;;;;;;;;;;;;;;;20.79;32.45;96638.22;1023299;28;1359;-59
2021/11/18 01:33:26;;;;;;;;;;;;;;;20.80;32.36;96645.09;1020976;29;1015;-59
2021/11/18 01:33:57;;;;;;;;;;;;;;;20.79;32.23;96642.72;1020514;29;881;-59
2021/11/18 01:34:27;;;;;;;;;;;;;;;20.80;32.48;96644.31;1020048;29;1240;-59
2021/11/18 01:34:57;;;;;;;;;;;;;;;20.81;32.39;96643.28;1020673;28;774;-58
2021/11/18 01:35:28;;;;;;;;;;;;;;;20.79;32.37;96648.78;1028589;28;1066;-58
2021/11/18 01:35:58;;;;;;;;;;;;;;;20.79;32.43;96646.13;1028398;28;1214;-59
2021/11/18 01:36:28;;;;;;;;;;;;;;;20.78;32.42;96644.56;1032683;28;1042;-60
2021/11/18 01:36:59;;;;;;;;;;;;;;;20.78;32.26;96647.19;1031520;28;1031;-60
2021/11/18 01:37:29;;;;;;;;;;;;;;;20.80;32.41;96644.31;1031863;28;774;-59
2021/11/18 01:37:59;;;;;;;;;;;;;;;20.82;32.41;96652.75;1027902;28;809;-60
2021/11/18 01:38:32;;;;;;;;;;;;;;;20.83;32.21;96646.44;1028648;28;805;-60
2021/11/18 01:39:04;;;;;;;;;;;;;;;20.82;32.29;96650.91;1024470;28;1100;-59
2021/11/18 01:39:34;;;;;;;;;;;;;;;20.81;32.28;96649.31;1024832;28;812;-59
2021/11/18 01:40:05;;;;;;;;;;;;;;;20.81;32.48;96645.91;1028530;28;1907;-58
2021/11/18 01:40:37;;;;;;;;;;;;;;;20.82;32.28;96652.75;1024447;29;1272;-59
2021/11/18 01:41:08;;;;;;;;;;;;;;;20.82;32.46;96653.56;1020785;29;1075;-59
2021/11/18 01:41:39;;;;;;;;;;;;;;;20.83;32.34;96649.88;1020561;29;793;-59
2021/11/18 01:42:09;;;;;;;;;;;;;;;20.84;32.25;96650.66;1020826;29;738;-60
2021/11/18 01:42:41;;;;;;;;;;;;;;;20.84;32.33;96651.47;1024499;28;872;-60
2021/11/18 01:43:12;;;;;;;;;;;;;;;20.85;32.28;96652.25;1028488;28;824;-60
2021/11/18 01:43:44;;;;;;;;;;;;;;;20.84;32.14;96654.09;1024305;28;770;-60
2021/11/18 01:44:26;;;;;;;;;;;;;;;20.84;32.20;96656.72;1023825;29;793;-59
2021/11/18 01:44:56;;;;;;;;;;;;;;;20.85;32.21;96649.63;1020259;29;794;-59
2021/11/18 01:45:28;;;;;;;;;;;;;;;20.84;32.13;96654.09;1022083;29;877;-60
2021/11/18 01:45:58;;;;;;;;;;;;;;;20.86;32.35;96653.84;1026274;28;804;-60
2021/11/18 01:46:32;;;;;;;;;;;;;;;20.86;32.16;96654.63;1028532;28;792;-59
2021/11/18 01:47:03;;;;;;;;;;;;;;;20.85;32.10;96658.34;1024618;29;836;-59
2021/11/18 01:47:34;;;;;;;;;;;;;;;20.85;32.30;96658.34;1024382;28;825;-59
2021/11/18 01:48:04;;;;;;;;;;;;;;;20.85;32.37;96653.06;1027901;28;818;-59
2021/11/18 01:48:34;;;;;;;;;;;;;;;20.84;32.25;96656.72;1028905;28;880;-60
2021/11/18 01:49:07;;;;;;;;;;;;;;;20.84;32.19;96654.09;1032883;28;824;-60
2021/11/18 01:49:38;;;;;;;;;;;;;;;20.85;32.44;96653.06;1032661;28;968;-60
2021/11/18 01:50:08;;;;;;;;;;;;;;;20.84;32.27;96655.94;1028496;28;987;-60
2021/11/18 01:50:40;;;;;;;;;;;;;;;20.83;32.45;96660.44;1024423;29;987;-60
2021/11/18 01:51:10;;;;;;;;;;;;;;;20.85;32.35;96663.59;1020422;29;760;-60
2021/11/18 01:51:42;;;;;;;;;;;;;;;20.84;32.26;96661.19;1016352;29;1954;-59
2021/11/18 01:52:14;;;;;;;;;;;;;;;20.86;32.29;96656.47;1020304;29;809;-59
2021/11/18 01:52:45;;;;;;;;;;;;;;;20.86;32.45;96657.28;1019762;29;852;-59
2021/11/18 01:53:16;;;;;;;;;;;;;;;20.88;32.05;96662.28;1021025;29;804;-59
2021/11/18 01:53:46;;;;;;;;;;;;;;;20.86;32.21;96665.19;1024718;28;869;-58
2021/11/18 01:54:17;;;;;;;;;;;;;;;20.86;32.18;96664.38;1028349;28;1352;-58
2021/11/18 01:54:48;;;;;;;;;;;;;;;20.87;32.09;96656.25;1028166;28;1296;-60
2021/11/18 01:55:20;;;;;;;;;;;;;;;20.86;32.27;96659.91;1028283;28;730;-59
2021/11/18 01:55:50;;;;;;;;;;;;;;;20.84;32.23;96664.63;1024032;29;995;-59
2021/11/18 01:56:25;;;;;;;;;;;;;;;20.84;32.39;96656.72;1020985;29;857;-60
2021/11/18 01:56:55;;;;;;;;;;;;;;;20.85;32.48;96658.34;1024546;29;723;-59
2021/11/18 01:57:27;;;;;;;;;;;;;;;20.86;32.45;96659.09;1024486;28;790;-60
2021/11/18 01:57:57;;;;;;;;;;;;;;;20.87;32.48;96655.44;1029104;28;769;-59
2021/11/18 01:58:28;;;;;;;;;;;;;;;20.88;32.25;96655.16;1032148;28;918;-58
2021/11/18 01:59:18;;;;;;;;;;;;;;;20.88;32.24;96652.53;1032522;28;995;-60
2021/11/18 01:59:48;;;;;;;;;;;;;;;20.88;32.33;96647.25;1028122;28;1977;-58
2021/11/18 02:00:20;;;;;;;;;;;;;;;20.88;32.30;96652.53;1028059;28;737;-60
2021/11/18 02:00:52;;;;;;;;;;;;;;;20.88;32.36;96649.91;1028577;28;856;-60
2021/11/18 02:01:23;;;;;;;;;;;;;;;20.88;32.31;96652.53;1028997;28;951;-59
2021/11/18 02:01:55;;;;;;;;;;;;;;;20.87;31.98;96648.34;1032838;28;821;-60
2021/11/18 02:02:26;;;;;;;;;;;;;;;20.87;32.08;96644.91;1032193;28;715;-60
2021/11/18 02:02:56;;;;;;;;;;;;;;;20.88;32.29;96654.38;1027632;28;1058;-60
2021/11/18 02:03:26;;;;;;;;;;;;;;;20.89;32.25;96654.13;1024322;29;1948;-60
2021/11/18 02:03:57;;;;;;;;;;;;;;;20.90;32.30;96657.53;1024122;28;1360;-60
2021/11/18 02:04:28;;;;;;;;;;;;;;;20.90;32.31;96655.72;1023776;28;1179;-60
2021/11/18 02:05:13;;;;;;;;;;;;;;;20.89;32.24;96651.50;1024574;29;1106;-59
2021/11/18 02:05:47;;;;;;;;;;;;;;;20.88;32.32;96655.16;1026801;28;865;-58
2021/11/18 02:06:20;;;;;;;;;;;;;;;20.90;32.36;96655.72;1027984;28;900;-59
2021/11/18 02:06:54;;;;;;;;;;;;;;;20.90;32.13;96661.00;1028154;28;1276;-58
2021/11/18 02:07:45;;;;;;;;;;;;;;;20.90;32.35;96653.06;1027712;28;1118;-59
2021/11/18 02:08:35;;;;;;;;;;;;;;;20.90;32.30;96650.44;1030721;28;1097;-57
2021/11/18 02:09:26;;;;;;;;;;;;;;;20.91;32.32;96657.31;1029276;28;1045;-59
2021/11/18 02:09:57;;;;;;;;;;;;;;;20.92;32.28;96653.63;1025010;29;1381;-59
2021/11/18 02:10:29;;;;;;;;;;;;;;;20.93;32.28;96655.22;1021131;29;830;-59
2021/11/18 02:11:03;;;;;;;;;;;;;;;20.92;32.50;96656.25;1024348;29;755;-56
2021/11/18 02:11:54;;;;;;;;;;;;;;;20.91;32.32;96659.94;1026280;28;1110;-60
2021/11/18 02:12:45;;;;;;;;;;;;;;;20.91;32.20;96659.16;1033035;28;755;-59
2021/11/18 02:13:35;;;;;;;;;;;;;;;20.90;32.23;96655.72;1033875;28;794;-60
2021/11/18 02:14:26;;;;;;;;;;;;;;;20.91;32.28;96656.50;1032451;28;966;-59
2021/11/18 02:14:57;;;;;;;;;;;;;;;20.91;32.38;96656.50;1033693;28;766;-60
2021/11/18 02:15:38;;;;;;;;;;;;;;;20.90;32.05;96662.81;1033462;28;828;-58
2021/11/18 02:16:12;;;;;;;;;;;;;;;20.91;32.27;96654.69;1025274;29;1532;-58
2021/11/18 02:17:03;;;;;;;;;;;;;;;20.90;32.17;96652.28;1021557;29;1198;-58
2021/11/18 02:17:54;;;;;;;;;;;;;;;20.92;32.56;96655.44;1022131;29;1019;-60
2021/11/18 02:18:24;;;;;;;;;;;;;;;20.91;32.15;96653.88;1026565;28;1015;-60
2021/11/18 02:18:59;;;;;;;;;;;;;;;20.91;32.18;96651.25;1025321;29;1676;-58
2021/11/18 02:19:37;;;;;;;;;;;;;;;20.89;32.22;96651.50;1028819;28;797;-59
2021/11/18 02:20:31;;;;;;;;;;;;;;;20.89;32.35;96648.88;1022977;29;1087;-58
2021/11/18 02:21:22;;;;;;;;;;;;;;;20.91;32.41;96652.03;1027072;28;1193;-59
2021/11/18 02:22:12;;;;;;;;;;;;;;;20.92;32.46;96653.63;1023440;29;958;-61
2021/11/18 02:23:04;;;;;;;;;;;;;;;20.89;31.95;96654.13;1028551;28;955;-59
2021/11/18 02:23:36;;;;;;;;;;;;;;;20.89;32.59;96642.81;1021170;29;1422;-60
2021/11/18 02:24:08;;;;;;;;;;;;;;;20.90;32.09;96650.44;1016521;29;1421;-60
2021/11/18 02:24:48;;;;;;;;;;;;;;;20.91;32.51;96649.41;1011921;29;1630;-60
2021/11/18 02:25:24;;;;;;;;;;;;;;;20.92;32.35;96643.06;1016980;29;1426;-59
2021/11/18 02:26:14;;;;;;;;;;;;;;;20.95;32.36;96647.06;1024613;28;1061;-59
2021/11/18 02:27:05;;;;;;;;;;;;;;;20.95;32.40;96637.31;1029839;28;1008;-58
2021/11/18 02:27:53;;;;;;;;;;;;;;;20.95;32.61;96636.50;1028347;28;1379;-59
2021/11/18 02:28:44;;;;;;;;;;;;;;;20.94;32.57;96640.97;1027988;28;1371;-60
2021/11/18 02:29:16;;;;;;;;;;;;;;;20.93;32.37;96642.03;1028194;28;809;-59
2021/11/18 02:29:47;;;;;;;;;;;;;;;20.93;32.19;96634.13;1031419;28;797;-60
2021/11/18 02:30:18;;;;;;;;;;;;;;;20.93;32.35;96635.97;1028479;28;928;-60
2021/11/18 02:30:50;;;;;;;;;;;;;;;20.93;32.01;96635.97;1024126;29;991;-60
2021/11/18 02:31:42;;;;;;;;;;;;;;;20.94;32.21;96637.53;1024048;29;964;-59
2021/11/18 02:32:33;;;;;;;;;;;;;;;20.94;32.31;96635.72;1030064;28;1148;-60
2021/11/18 02:33:04;;;;;;;;;;;;;;;20.93;32.29;96634.13;1031758;28;796;-60
2021/11/18 02:33:35;;;;;;;;;;;;;;;20.91;32.32;96630.16;1028352;28;1222;-60
2021/11/18 02:34:08;;;;;;;;;;;;;;;20.91;32.32;96630.16;1020500;29;796;-59
2021/11/18 02:34:44;;;;;;;;;;;;;;;20.92;32.38;96632.53;1019983;29;1257;-60
2021/11/18 02:35:32;;;;;;;;;;;;;;;20.93;32.20;96634.13;1023405;29;1233;-59
2021/11/18 02:36:22;;;;;;;;;;;;;;;20.95;32.23;96631.25;1023743;29;1374;-60
2021/11/18 02:37:13;;;;;;;;;;;;;;;20.93;32.59;96639.41;1025262;28;1397;-57
2021/11/18 02:37:44;;;;;;;;;;;;;;;20.94;32.62;96640.97;1025796;28;740;-59
2021/11/18 02:38:27;;;;;;;;;;;;;;;20.96;32.42;96644.16;1023994;29;1268;-59
2021/11/18 02:39:02;;;;;;;;;;;;;;;20.95;32.32;96642.59;1024358;29;1260;-59
2021/11/18 02:39:53;;;;;;;;;;;;;;;20.95;32.28;96645.22;1021798;29;1907;-59
2021/11/18 02:40:25;;;;;;;;;;;;;;;20.94;32.29;96643.63;1023948;29;1354;-60
2021/11/18 02:41:16;;;;;;;;;;;;;;;20.94;32.41;96650.72;1019546;29;1148;-59
2021/11/18 02:41:49;;;;;;;;;;;;;;;20.96;32.44;96657.34;1024036;29;1468;-57
2021/11/18 02:42:20;;;;;;;;;;;;;;;20.96;32.20;96648.63;1027311;28;824;-60
2021/11/18 02:42:50;;;;;;;;;;;;;;;20.95;32.46;96653.13;1027414;28;785;-59
2021/11/18 02:43:20;;;;;;;;;;;;;;;20.97;32.39;96651.03;1028336;28;825;-60
2021/11/18 02:43:51;;;;;;;;;;;;;;;20.98;32.08;96654.44;1028447;28;785;-58
2021/11/18 02:44:21;;;;;;;;;;;;;;;20.98;32.43;96651.78;1027561;28;983;-59
2021/11/18 02:44:52;;;;;;;;;;;;;;;20.95;32.07;96647.84;1032853;28;1210;-59
2021/11/18 02:45:26;;;;;;;;;;;;;;;20.97;32.69;96639.69;1028688;28;789;-59
2021/11/18 02:45:56;;;;;;;;;;;;;;;20.96;32.28;96648.63;1024185;29;936;-59
2021/11/18 02:46:26;;;;;;;;;;;;;;;20.97;32.48;96645.75;1024400;29;1042;-60
2021/11/18 02:46:57;;;;;;;;;;;;;;;20.96;32.23;96644.16;1025041;28;987;-59
2021/11/18 02:47:27;;;;;;;;;;;;;;;20.97;32.46;96651.03;1024586;29;1082;-60
2021/11/18 02:47:58;;;;;;;;;;;;;;;20.97;32.49;96650.22;1023442;29;1011;-59
2021/11/18 02:48:28;;;;;;;;;;;;;;;20.97;32.50;96644.97;1024229;28;836;-57
2021/11/18 02:48:59;;;;;;;;;;;;;;;20.96;32.34;96648.63;1024842;28;769;-60
2021/11/18 02:49:30;;;;;;;;;;;;;;;20.97;32.39;96648.41;1024430;29;1242;-60
2021/11/18 02:50:00;;;;;;;;;;;;;;;20.97;32.49;96650.22;1024413;29;855;-60
2021/11/18 02:50:33;;;;;;;;;;;;;;;20.97;32.42;96652.88;1024675;28;888;-60
2021/11/18 02:51:06;;;;;;;;;;;;;;;20.95;32.61;96652.31;1028980;28;742;-59
2021/11/18 02:51:36;;;;;;;;;;;;;;;20.99;32.46;96662.13;1028327;28;931;-60
2021/11/18 02:52:06;;;;;;;;;;;;;;;20.99;32.32;96658.69;1027827;28;612;-59
2021/11/18 02:52:37;;;;;;;;;;;;;;;20.95;32.37;96663.66;1023743;29;1452;-57
2021/11/18 02:53:07;;;;;;;;;;;;;;;20.98;32.60;96657.88;1023940;29;793;-59
2021/11/18 02:53:38;;;;;;;;;;;;;;;20.98;32.46;96654.44;1020473;29;785;-59
2021/11/18 02:54:08;;;;;;;;;;;;;;;20.95;32.14;96653.13;1020320;29;1344;-60